createdAt,value
2024-05-09T00:10:51.406Z,102939.00
2024-05-09T00:33:23.988Z,102925.97
2024-05-09T00:55:58.296Z,102932.22
2024-05-09T01:18:31.110Z,102923.59
2024-05-09T01:41:03.651Z,102913.19
2024-05-09T02:03:36.089Z,102911.53
2024-05-09T02:26:08.530Z,102901.97
2024-05-09T02:48:41.528Z,102904.75
2024-05-09T03:11:26.621Z,102896.94
2024-05-09T03:33:59.139Z,102890.06
2024-05-09T03:56:31.649Z,102878.66
2024-05-09T04:19:03.956Z,102886.38
2024-05-09T04:41:36.289Z,102897.34
2024-05-09T05:04:08.555Z,102895.28
2024-05-09T05:26:41.336Z,102916.09
2024-05-09T05:49:13.783Z,102899.72
2024-05-09T06:11:47.121Z,102914.75
2024-05-09T06:34:19.861Z,102911.72
2024-05-09T06:56:52.253Z,102917.47
2024-05-09T07:19:25.350Z,102925.19
2024-05-09T07:41:57.745Z,102928.69
2024-05-09T08:04:30.535Z,102916.78
2024-05-09T08:27:03.727Z,102903.59
2024-05-09T08:49:41.702Z,102909.53
2024-05-09T09:12:14.973Z,102906.84
2024-05-09T09:34:48.974Z,102893.75
2024-05-09T09:57:24.191Z,102892.13
2024-05-09T10:20:14.912Z,102854.47
2024-05-09T10:42:55.697Z,102840.59
2024-05-09T11:05:28.300Z,102816.88
2024-05-09T11:28:04.076Z,102783.25
2024-05-09T11:50:36.645Z,102768.72
2024-05-09T12:13:09.234Z,102746.31
2024-05-09T12:35:45.193Z,102729.97
2024-05-09T12:58:19.818Z,102702.81
2024-05-09T13:20:52.459Z,102696.56
2024-05-09T13:43:27.412Z,102660.63
2024-05-09T14:06:00.138Z,102639.19
2024-05-09T14:28:32.585Z,102616.00
2024-05-09T14:51:05.231Z,102609.53
2024-05-09T15:13:37.751Z,102585.88
2024-05-09T15:36:10.382Z,102574.41
2024-05-09T15:58:44.394Z,102574.41
2024-05-09T16:21:16.761Z,102569.34
2024-05-09T16:43:49.891Z,102570.34
2024-05-09T17:06:22.284Z,102570.59
2024-05-09T17:28:54.622Z,102573.69
2024-05-09T17:51:27.454Z,102579.91
2024-05-09T18:13:59.687Z,102582.00
2024-05-09T18:36:31.896Z,102582.06
2024-05-09T18:59:03.936Z,102579.59
2024-05-09T19:21:36.557Z,102602.16
2024-05-09T19:44:09.321Z,102620.56
2024-05-09T20:06:41.666Z,102634.19
2024-05-09T20:29:13.773Z,102636.78
2024-05-09T20:51:45.697Z,102640.78
2024-05-09T21:14:17.802Z,102620.69
2024-05-09T21:36:49.727Z,102624.16
2024-05-09T21:59:21.618Z,102601.66
2024-05-09T22:21:55.406Z,102577.16
2024-05-09T22:44:27.716Z,102579.19
2024-05-09T23:06:59.666Z,102579.75
2024-05-09T23:29:31.696Z,102593.94
2024-05-09T23:52:03.983Z,102597.09
